Time;durP1;ratioP1;P1;durP2;ratioP2;P2;SDS_P1;SDS_P2;PMS_P1;PMS_P2;Temp;Humidity;BMP_temperature;BMP_pressure;BME280_temperature;BME280_humidity;BME280_pressure;Samples;Min_cycle;Max_cycle;Signal;HPM_P1;HPM_P2
2022/08/23 00:00:09;;;;;;;2.28;1.10;;;24.00;63.00;;;;;;4462158;32;20395;-72
2022/08/23 00:02:35;;;;;;;2.50;1.17;;;24.00;63.00;;;;;;4461926;32;20236;-70
2022/08/23 00:05:00;;;;;;;2.55;0.98;;;24.00;62.90;;;;;;4462159;32;20078;-70
2022/08/23 00:07:26;;;;;;;2.22;1.40;;;24.00;63.00;;;;;;4461741;32;20093;-71
2022/08/23 00:09:52;;;;;;;2.10;1.13;;;24.00;63.00;;;;;;4462019;32;20376;-70
2022/08/23 00:12:21;;;;;;;2.10;1.42;;;24.00;63.00;;;;;;4461435;32;20053;-71
2022/08/23 00:14:50;;;;;;;2.17;0.90;;;24.00;62.90;;;;;;4461658;32;20136;-70
2022/08/23 00:17:17;;;;;;;2.17;1.05;;;24.00;63.00;;;;;;4461875;32;20086;-70
2022/08/23 00:19:44;;;;;;;2.05;1.02;;;24.00;63.00;;;;;;4461855;32;20491;-70
2022/08/23 00:22:11;;;;;;;3.00;1.27;;;24.00;63.00;;;;;;4461771;32;20092;-71
2022/08/23 00:24:38;;;;;;;1.70;1.05;;;24.00;63.00;;;;;;4447256;32;20078;-70
2022/08/23 00:27:10;;;;;;;2.10;1.20;;;24.00;63.00;;;;;;4461449;32;20065;-70
2022/08/23 00:29:40;;;;;;;1.67;1.00;;;24.00;63.00;;;;;;4461252;32;20228;-71
2022/08/23 00:32:08;;;;;;;1.90;1.00;;;23.90;62.90;;;;;;4461366;32;20092;-71
2022/08/23 00:34:35;;;;;;;3.65;1.48;;;23.90;63.00;;;;;;4461640;32;20089;-70
2022/08/23 00:37:03;;;;;;;2.85;1.45;;;24.00;62.90;;;;;;4461070;32;20093;-70
2022/08/23 00:39:29;;;;;;;2.20;1.05;;;24.00;63.00;;;;;;4461183;32;20087;-70
2022/08/23 00:41:58;;;;;;;2.20;1.00;;;24.00;62.90;;;;;;4461370;32;20419;-70
2022/08/23 00:50:08;;;;;;;1.70;1.10;;;23.90;62.90;;;;;;4461816;32;20243;-70
2022/08/23 00:52:42;;;;;;;2.80;1.17;;;23.90;62.90;;;;;;4461226;32;20074;-71
2022/08/23 00:55:09;;;;;;;3.00;1.27;;;23.90;62.90;;;;;;4461139;32;20081;-71
2022/08/23 00:57:36;;;;;;;2.40;1.13;;;23.90;62.90;;;;;;4461066;32;20080;-70
2022/08/23 01:00:05;;;;;;;1.98;1.02;;;23.90;62.90;;;;;;4461246;32;20077;-70
2022/08/23 01:02:31;;;;;;;1.30;1.00;;;23.90;62.90;;;;;;4446694;32;20143;-71
2022/08/23 01:05:01;;;;;;;2.47;0.95;;;23.90;62.90;;;;;;4461125;32;20086;-71
2022/08/23 01:07:45;;;;;;;1.98;1.25;;;23.90;62.90;;;;;;4460852;32;20542;-71
2022/08/23 01:10:18;;;;;;;1.98;1.00;;;23.90;63.00;;;;;;4461203;32;20076;-71
2022/08/23 01:12:51;;;;;;;1.20;0.90;;;23.90;62.90;;;;;;4460785;32;20077;-71
2022/08/23 01:15:55;;;;;;;2.55;0.80;;;23.90;62.90;;;;;;4461196;32;20074;-71
2022/08/23 01:18:23;;;;;;;2.40;1.05;;;23.90;62.90;;;;;;4460917;32;20065;-70
2022/08/23 01:21:01;;;;;;;2.75;1.10;;;23.90;63.00;;;;;;4446922;32;20100;-70
2022/08/23 01:23:39;;;;;;;2.33;1.10;;;23.90;63.00;;;;;;4460580;32;20117;-71
2022/08/23 01:26:06;;;;;;;2.00;1.00;;;23.80;62.90;;;;;;4460552;32;20089;-72
2022/08/23 01:28:33;;;;;;;1.40;1.00;;;23.80;62.80;;;;;;4460700;32;20601;-70
2022/08/23 01:31:00;;;;;;;2.50;1.33;;;23.90;62.90;;;;;;4460597;32;20235;-71
2022/08/23 01:33:26;;;;;;;2.13;1.00;;;23.80;62.90;;;;;;4460262;32;20422;-72
2022/08/23 01:35:55;;;;;;;3.13;1.10;;;23.80;62.90;;;;;;4460550;32;20069;-71
2022/08/23 01:38:22;;;;;;;1.80;1.10;;;23.80;62.80;;;;;;4460412;32;20074;-71
2022/08/23 01:40:49;;;;;;;1.77;0.98;;;23.80;62.90;;;;;;4460909;32;20267;-71
2022/08/23 01:43:18;;;;;;;1.38;1.08;;;23.80;62.90;;;;;;4460690;32;20090;-71
2022/08/23 01:45:45;;;;;;;1.55;1.00;;;23.80;62.90;;;;;;4460592;32;20070;-71
2022/08/23 01:48:11;;;;;;;1.52;0.90;;;23.80;62.90;;;;;;4460528;32;20090;-71
2022/08/23 01:50:37;;;;;;;0.93;0.73;;;23.80;62.80;;;;;;4460468;32;20089;-71
2022/08/23 01:53:05;;;;;;;2.83;1.10;;;23.80;62.80;;;;;;4460472;32;20062;-72
2022/08/23 01:55:32;;;;;;;2.05;0.95;;;23.80;62.80;;;;;;4460818;32;20078;-70
2022/08/23 01:58:01;;;;;;;2.30;0.95;;;23.80;62.80;;;;;;4464026;32;20109;-71
2022/08/23 02:00:31;;;;;;;1.73;1.10;;;23.80;62.80;;;;;;4463405;32;20093;-70
2022/08/23 02:02:59;;;;;;;1.80;1.08;;;23.80;62.80;;;;;;4450238;32;20113;-70
2022/08/23 02:05:26;;;;;;;1.50;1.00;;;23.80;62.90;;;;;;4463575;32;20078;-70
2022/08/23 02:07:52;;;;;;;1.77;1.00;;;23.80;62.80;;;;;;4463437;32;20085;-70
2022/08/23 02:10:19;;;;;;;1.73;1.00;;;23.80;62.80;;;;;;4463403;32;20190;-70
2022/08/23 02:12:45;;;;;;;2.33;1.00;;;23.80;62.80;;;;;;4463296;32;20093;-70
2022/08/23 02:15:13;;;;;;;2.33;1.10;;;23.80;62.80;;;;;;4463656;32;20070;-71
2022/08/23 02:17:39;;;;;;;1.60;0.93;;;23.80;62.80;;;;;;4463412;32;20089;-70
2022/08/23 02:20:06;;;;;;;1.60;1.15;;;23.80;62.80;;;;;;4463464;32;20062;-71
2022/08/23 02:22:32;;;;;;;1.58;0.90;;;23.80;62.80;;;;;;4463521;32;20074;-70
2022/08/23 02:24:58;;;;;;;2.45;1.05;;;23.70;62.70;;;;;;4463555;32;20125;-70
2022/08/23 02:27:24;;;;;;;2.05;1.10;;;23.70;62.80;;;;;;4463276;32;20078;-70
2022/08/23 02:29:50;;;;;;;1.30;0.77;;;23.80;62.80;;;;;;4463355;32;20066;-70
2022/08/23 02:32:17;;;;;;;1.88;0.85;;;23.80;62.80;;;;;;4462872;32;20062;-70
2022/08/23 02:34:44;;;;;;;0.73;0.73;;;23.70;62.70;;;;;;4463067;32;20086;-71
2022/08/23 02:37:12;;;;;;;0.90;0.60;;;23.70;62.80;;;;;;4462843;32;20135;-71
2022/08/23 02:39:39;;;;;;;1.33;0.88;;;23.70;62.80;;;;;;4449200;32;20132;-70
2022/08/23 02:42:06;;;;;;;2.53;0.93;;;23.70;62.80;;;;;;4462998;32;20117;-70
2022/08/23 02:44:34;;;;;;;1.08;0.80;;;23.70;62.80;;;;;;4463040;32;20167;-70
2022/08/23 02:47:01;;;;;;;1.48;0.68;;;23.70;62.80;;;;;;4463002;32;20086;-71
2022/08/23 02:49:28;;;;;;;1.33;0.90;;;23.70;62.80;;;;;;4462712;32;20077;-70
2022/08/23 02:51:53;;;;;;;1.88;0.88;;;23.70;62.80;;;;;;4462894;32;20092;-70
2022/08/23 02:54:19;;;;;;;1.05;0.88;;;23.70;62.80;;;;;;4462886;32;20082;-70
2022/08/23 02:56:46;;;;;;;2.03;0.90;;;23.70;62.70;;;;;;4463076;32;20183;-69
2022/08/23 02:59:12;;;;;;;1.92;1.08;;;23.70;62.80;;;;;;4462880;32;20282;-71
2022/08/23 03:01:38;;;;;;;2.35;0.90;;;23.70;62.80;;;;;;4462742;32;20436;-70
2022/08/23 03:04:08;;;;;;;2.33;0.90;;;23.70;62.80;;;;;;4462748;32;20082;-71
2022/08/23 03:06:34;;;;;;;1.40;0.82;;;23.70;62.80;;;;;;4462461;32;20175;-71
2022/08/23 03:09:00;;;;;;;1.27;0.80;;;23.70;62.80;;;;;;4462718;32;20200;-70
2022/08/23 03:11:26;;;;;;;1.05;0.80;;;23.60;62.70;;;;;;4462597;32;20522;-70
2022/08/23 03:13:55;;;;;;;0.95;0.80;;;23.70;62.80;;;;;;4462803;32;20519;-70
2022/08/23 03:16:21;;;;;;;1.30;0.98;;;23.70;62.80;;;;;;4462534;32;20167;-73
2022/08/23 03:18:48;;;;;;;0.88;0.60;;;23.60;62.80;;;;;;4448557;32;20090;-70
2022/08/23 03:21:14;;;;;;;1.13;0.80;;;23.60;62.70;;;;;;4462234;32;20080;-70
2022/08/23 03:23:40;;;;;;;1.77;0.95;;;23.60;62.80;;;;;;4462468;32;20171;-70
2022/08/23 03:26:08;;;;;;;1.40;0.80;;;23.60;62.90;;;;;;4462686;32;20086;-71
2022/08/23 03:28:37;;;;;;;1.15;0.80;;;23.60;62.80;;;;;;4462461;32;20077;-70
2022/08/23 03:31:05;;;;;;;1.73;0.93;;;23.60;62.80;;;;;;4448304;32;20077;-71
2022/08/23 03:33:30;;;;;;;1.10;0.80;;;23.60;62.80;;;;;;4462351;32;20085;-70
2022/08/23 03:36:02;;;;;;;1.23;0.80;;;23.60;62.70;;;;;;4462230;32;20065;-71
2022/08/23 03:38:28;;;;;;;1.45;0.90;;;23.60;63.80;;;;;;4462079;32;20120;-71
2022/08/23 03:40:54;;;;;;;2.90;0.93;;;23.60;62.80;;;;;;4462241;32;20078;-71
2022/08/23 03:43:20;;;;;;;0.93;0.73;;;23.60;62.80;;;;;;4462360;32;20058;-70
2022/08/23 03:45:46;;;;;;;2.13;0.90;;;23.60;62.80;;;;;;4448186;32;20423;-71
2022/08/23 03:48:12;;;;;;;1.67;1.05;;;23.60;62.80;;;;;;4462135;32;20519;-71
2022/08/23 03:50:38;;;;;;;2.25;0.80;;;23.60;62.80;;;;;;4461989;32;20172;-70
2022/08/23 03:53:05;;;;;;;1.05;0.80;;;23.60;62.80;;;;;;4461792;32;20058;-70
2022/08/23 03:55:31;;;;;;;1.23;0.77;;;23.60;62.80;;;;;;4462189;32;20483;-71
2022/08/23 03:57:58;;;;;;;1.10;0.80;;;23.60;62.80;;;;;;4462233;32;20090;-70
2022/08/23 04:00:24;;;;;;;1.00;0.80;;;23.60;62.80;;;;;;4461931;32;20717;-70
2022/08/23 04:02:50;;;;;;;1.27;0.85;;;23.60;62.80;;;;;;4461876;32;20077;-71
2022/08/23 04:05:16;;;;;;;1.15;0.70;;;23.60;62.90;;;;;;4461582;32;20144;-70
2022/08/23 04:07:42;;;;;;;2.22;0.80;;;23.50;62.70;;;;;;4461686;32;20097;-70
2022/08/23 04:10:12;;;;;;;1.63;0.82;;;23.50;62.80;;;;;;4461752;32;20199;-71
2022/08/23 04:12:38;;;;;;;1.58;0.80;;;23.60;62.80;;;;;;4461920;32;20098;-70
2022/08/23 04:15:04;;;;;;;1.58;1.05;;;23.50;62.70;;;;;;4447482;32;20520;-70
2022/08/23 04:17:30;;;;;;;1.80;0.88;;;23.50;62.70;;;;;;4461699;32;20076;-70
2022/08/23 04:19:56;;;;;;;1.40;0.90;;;23.60;62.80;;;;;;4460988;32;20061;-71
2022/08/23 04:22:23;;;;;;;1.38;0.73;;;23.50;62.80;;;;;;4461632;32;20062;-70
2022/08/23 04:24:48;;;;;;;1.45;0.88;;;23.60;62.90;;;;;;4461839;32;20120;-70
2022/08/23 04:27:14;;;;;;;1.58;0.55;;;23.50;62.80;;;;;;4461274;32;20073;-70
2022/08/23 04:29:40;;;;;;;0.90;0.70;;;23.50;63.70;;;;;;4461493;32;20072;-70
2022/08/23 04:32:08;;;;;;;2.63;0.80;;;23.50;62.90;;;;;;4461577;32;20403;-70
2022/08/23 04:34:35;;;;;;;0.88;0.65;;;23.50;62.80;;;;;;4447448;32;20211;-70
2022/08/23 04:37:01;;;;;;;0.95;0.70;;;23.50;62.80;;;;;;4461182;32;20089;-70
2022/08/23 04:39:27;;;;;;;1.00;0.77;;;23.50;62.90;;;;;;4461418;32;20088;-70
2022/08/23 04:44:38;;;;;;;1.17;0.88;;;23.50;62.90;;;;;;4461328;32;20073;-70
2022/08/23 04:47:04;;;;;;;1.00;0.80;;;23.50;62.90;;;;;;4461316;32;20500;-70
2022/08/23 04:49:30;;;;;;;1.23;0.63;;;23.50;62.90;;;;;;4460920;32;20069;-70
2022/08/23 04:51:55;;;;;;;0.90;0.60;;;23.50;62.90;;;;;;4461039;32;20203;-70
2022/08/23 04:54:22;;;;;;;1.10;0.70;;;23.50;62.90;;;;;;4461141;32;20066;-71
2022/08/23 04:56:47;;;;;;;1.50;0.70;;;23.50;62.90;;;;;;4460866;32;20136;-70
2022/08/23 04:59:14;;;;;;;1.35;0.77;;;23.50;62.90;;;;;;4434325;32;20215;-70
2022/08/23 05:01:41;;;;;;;2.17;0.80;;;23.50;62.90;;;;;;4460756;32;20078;-71
2022/08/23 05:04:08;;;;;;;1.02;0.90;;;23.50;62.80;;;;;;4461007;32;20092;-70
2022/08/23 05:06:34;;;;;;;1.67;0.70;;;23.40;62.80;;;;;;4460957;32;20089;-70
2022/08/23 05:09:00;;;;;;;2.08;0.80;;;23.50;62.90;;;;;;4461055;32;20086;-70
2022/08/23 05:11:28;;;;;;;2.00;0.80;;;23.50;62.90;;;;;;4460834;32;20163;-70
2022/08/23 05:13:54;;;;;;;1.73;0.80;;;23.40;62.80;;;;;;4461099;32;20080;-70
2022/08/23 05:16:20;;;;;;;2.45;1.10;;;23.40;62.80;;;;;;4460832;32;20098;-70
2022/08/23 05:18:45;;;;;;;0.90;0.68;;;23.40;62.80;;;;;;4461078;32;20065;-70
2022/08/23 05:21:17;;;;;;;1.58;0.70;;;23.40;62.80;;;;;;4460838;32;20093;-72
2022/08/23 05:23:46;;;;;;;1.00;0.65;;;23.40;62.80;;;;;;4460646;32;20139;-71
2022/08/23 05:26:13;;;;;;;1.08;0.77;;;23.40;62.80;;;;;;4461260;32;20124;-70
2022/08/23 05:28:44;;;;;;;1.20;0.80;;;23.40;62.80;;;;;;4460799;32;20581;-70
2022/08/23 05:31:13;;;;;;;1.40;0.80;;;23.40;62.80;;;;;;4460501;32;20100;-70
2022/08/23 05:33:40;;;;;;;1.35;0.68;;;23.40;62.80;;;;;;4446739;32;20124;-70
2022/08/23 05:36:07;;;;;;;1.00;0.80;;;23.40;62.80;;;;;;4460601;32;20077;-72
2022/08/23 05:38:33;;;;;;;1.60;0.80;;;23.40;62.90;;;;;;4460453;32;20133;-71
2022/08/23 05:41:03;;;;;;;1.70;0.82;;;23.40;62.90;;;;;;4460326;32;20085;-70
2022/08/23 05:43:30;;;;;;;1.27;0.60;;;23.40;62.80;;;;;;4460640;32;20117;-71
2022/08/23 05:46:05;;;;;;;0.65;0.52;;;23.40;62.80;;;;;;4460769;32;20070;-70
2022/08/23 05:48:32;;;;;;;0.82;0.70;;;23.40;62.80;;;;;;4460955;32;20066;-70
2022/08/23 05:51:20;;;;;;;1.55;0.63;;;23.40;62.80;;;;;;4460473;32;20086;-71
2022/08/23 05:53:48;;;;;;;1.05;0.70;;;23.40;62.90;;;;;;4460914;32;20062;-70
2022/08/23 05:56:20;;;;;;;0.93;0.70;;;23.40;62.90;;;;;;4460464;32;20191;-71
2022/08/23 05:58:47;;;;;;;0.95;0.80;;;23.40;62.80;;;;;;4460458;32;20140;-70
2022/08/23 06:01:16;;;;;;;0.85;0.70;;;23.40;62.90;;;;;;4460490;32;20090;-71
2022/08/23 06:03:43;;;;;;;0.80;0.60;;;23.40;62.80;;;;;;4460232;32;20086;-71
2022/08/23 06:06:09;;;;;;;1.13;0.80;;;23.40;62.80;;;;;;4460398;32;20171;-74
2022/08/23 06:08:37;;;;;;;0.90;0.75;;;23.40;62.90;;;;;;4460630;32;20069;-70
2022/08/23 06:11:07;;;;;;;1.45;1.00;;;23.40;62.80;;;;;;4460345;32;20094;-71
2022/08/23 06:13:34;;;;;;;1.75;0.85;;;23.40;62.80;;;;;;4460118;32;20093;-71
2022/08/23 06:16:00;;;;;;;0.90;0.70;;;23.40;62.80;;;;;;4460914;32;20090;-70
2022/08/23 06:18:26;;;;;;;1.10;0.80;;;23.40;62.80;;;;;;4460601;32;20070;-70
2022/08/23 06:21:08;;;;;;;1.02;0.70;;;23.40;62.70;;;;;;4446179;32;20074;-70
2022/08/23 06:23:35;;;;;;;1.40;0.70;;;23.40;62.70;;;;;;4460475;32;20092;-70
2022/08/23 06:26:09;;;;;;;0.90;0.60;;;23.40;62.70;;;;;;4460344;32;20204;-70
2022/08/23 06:28:35;;;;;;;1.63;0.70;;;23.40;63.50;;;;;;4460392;32;20093;-70
2022/08/23 06:31:01;;;;;;;1.98;0.90;;;23.40;62.70;;;;;;4460497;32;20082;-70
2022/08/23 06:33:27;;;;;;;0.80;0.60;;;23.50;62.70;;;;;;4460263;32;20566;-70
2022/08/23 06:36:05;;;;;;;1.17;0.80;;;23.50;62.70;;;;;;4460418;32;20062;-70
2022/08/23 06:38:33;;;;;;;1.52;0.90;;;23.50;62.70;;;;;;4459959;32;20608;-70
2022/08/23 06:41:04;;;;;;;1.08;0.60;;;23.50;62.70;;;;;;4460201;32;20078;-71
2022/08/23 06:43:30;;;;;;;1.23;0.93;;;23.50;62.70;;;;;;4462819;32;20095;-70
2022/08/23 06:46:18;;;;;;;1.02;0.60;;;23.50;62.70;;;;;;4463059;32;20070;-70
2022/08/23 06:48:45;;;;;;;1.58;1.00;;;23.60;62.70;;;;;;4463394;32;20088;-70
2022/08/23 06:51:21;;;;;;;0.80;0.80;;;23.60;62.70;;;;;;4462835;32;20097;-73
2022/08/23 06:53:47;;;;;;;1.15;0.73;;;23.60;62.70;;;;;;4463006;32;20092;-73
2022/08/23 06:56:13;;;;;;;1.83;1.20;;;23.60;62.70;;;;;;4462910;32;20082;-73
2022/08/23 06:58:39;;;;;;;4.65;1.77;;;23.60;62.70;;;;;;4462893;32;20112;-72
2022/08/23 07:01:10;;;;;;;1.90;1.65;;;23.60;62.70;;;;;;4462770;32;20516;-73
2022/08/23 07:03:37;;;;;;;4.72;3.20;;;23.70;62.90;;;;;;4462749;32;20090;-72
2022/08/23 07:06:03;;;;;;;5.40;3.33;;;23.70;62.80;;;;;;4462777;32;20058;-72
2022/08/23 07:08:29;;;;;;;8.75;3.60;;;23.70;62.70;;;;;;4448706;32;20117;-72
2022/08/23 07:10:56;;;;;;;7.90;4.25;;;23.70;62.70;;;;;;4462812;32;20136;-71
2022/08/23 07:13:21;;;;;;;8.52;3.97;;;23.80;62.70;;;;;;4462287;32;20074;-72
2022/08/23 07:15:48;;;;;;;7.80;3.90;;;23.80;62.60;;;;;;4462597;32;20128;-72
2022/08/23 07:18:13;;;;;;;10.20;5.07;;;23.80;62.70;;;;;;4462473;32;20423;-72
2022/08/23 07:20:39;;;;;;;10.05;4.00;;;23.80;62.70;;;;;;4462732;32;20219;-72
2022/08/23 07:23:05;;;;;;;9.75;3.83;;;23.80;62.60;;;;;;4448563;32;20299;-72
2022/08/23 07:25:31;;;;;;;7.60;3.33;;;23.80;62.60;;;;;;4448117;32;20092;-72
2022/08/23 07:27:57;;;;;;;6.00;3.55;;;23.80;62.60;;;;;;4462394;32;20070;-72
2022/08/23 07:30:23;;;;;;;7.28;3.42;;;23.80;62.70;;;;;;4462255;32;20070;-72
2022/08/23 07:32:49;;;;;;;6.97;3.30;;;23.80;62.70;;;;;;4462025;32;20163;-72
2022/08/23 07:35:15;;;;;;;9.40;3.35;;;23.80;62.70;;;;;;4462290;32;20155;-71
2022/08/23 07:37:41;;;;;;;5.93;3.17;;;23.80;62.80;;;;;;4462103;32;20105;-72
2022/08/23 07:40:08;;;;;;;5.72;2.97;;;23.80;62.80;;;;;;4461977;32;20416;-71
2022/08/23 07:42:33;;;;;;;7.70;2.85;;;23.80;62.80;;;;;;4462372;32;20481;-72
2022/08/23 07:44:59;;;;;;;8.70;3.30;;;23.80;62.80;;;;;;4448109;32;20122;-72
2022/08/23 07:47:27;;;;;;;6.05;2.97;;;23.90;62.70;;;;;;4461861;32;20542;-71
2022/08/23 07:49:53;;;;;;;5.03;3.03;;;23.90;62.60;;;;;;4462189;32;20546;-72
2022/08/23 07:52:19;;;;;;;5.95;3.17;;;23.90;62.60;;;;;;4461702;32;20073;-72
2022/08/23 07:54:45;;;;;;;8.60;3.67;;;23.90;62.60;;;;;;4462009;32;20058;-72
2022/08/23 07:57:11;;;;;;;6.25;3.30;;;23.90;62.50;;;;;;4448007;32;20230;-73
2022/08/23 07:59:37;;;;;;;4.85;2.70;;;23.90;62.30;;;;;;4447944;32;20080;-72
2022/08/23 08:02:04;;;;;;;5.15;2.78;;;24.00;62.50;;;;;;4462180;32;20219;-73
2022/08/23 08:04:30;;;;;;;9.10;3.28;;;23.90;62.40;;;;;;4461865;32;20094;-72
2022/08/23 08:06:58;;;;;;;7.25;3.40;;;24.00;62.50;;;;;;4461895;32;20151;-73
2022/08/23 08:09:23;;;;;;;6.45;3.45;;;24.00;62.40;;;;;;4462121;32;20098;-72
2022/08/23 08:11:51;;;;;;;8.95;3.15;;;24.00;62.30;;;;;;4461404;32;20636;-71
2022/08/23 08:14:17;;;;;;;10.15;3.05;;;24.00;62.20;;;;;;4461434;32;20081;-72
2022/08/23 08:16:46;;;;;;;5.28;2.72;;;24.00;62.20;;;;;;4461308;32;20404;-72
2022/08/23 08:19:14;;;;;;;5.38;2.97;;;24.00;62.10;;;;;;4461585;32;20069;-74
2022/08/23 08:21:41;;;;;;;5.72;2.90;;;24.00;61.90;;;;;;4461784;32;20089;-72
2022/08/23 08:24:09;;;;;;;8.30;3.25;;;24.10;61.80;;;;;;4461808;32;20093;-73
2022/08/23 08:26:36;;;;;;;5.43;2.50;;;24.10;61.70;;;;;;4461551;32;20396;-72
2022/08/23 08:29:02;;;;;;;6.28;2.92;;;24.10;61.60;;;;;;4447215;32;20096;-72
2022/08/23 08:31:29;;;;;;;4.85;2.50;;;24.10;61.50;;;;;;4461408;32;20108;-73
2022/08/23 08:33:55;;;;;;;12.20;3.28;;;24.10;61.40;;;;;;4461351;32;20073;-71
2022/08/23 08:36:43;;;;;;;10.23;3.33;;;24.20;61.30;;;;;;4461255;32;20159;-74
2022/08/23 08:39:12;;;;;;;8.57;2.83;;;24.20;61.30;;;;;;4447379;32;20081;-72
2022/08/23 08:41:47;;;;;;;7.72;2.78;;;24.20;61.30;;;;;;4461275;32;20566;-72
2022/08/23 08:44:13;;;;;;;7.95;2.88;;;24.20;61.20;;;;;;4461529;32;20231;-72
2022/08/23 08:46:52;;;;;;;6.30;2.40;;;24.20;61.20;;;;;;4447258;32;20506;-71
2022/08/23 08:49:41;;;;;;;4.50;2.67;;;24.20;61.30;;;;;;4460996;32;20074;-72
2022/08/23 08:52:16;;;;;;;5.38;2.50;;;24.20;61.30;;;;;;4461335;32;20081;-76
2022/08/23 08:54:44;;;;;;;8.65;2.35;;;24.20;61.30;;;;;;4460891;32;20078;-76
2022/08/23 08:57:13;;;;;;;6.82;2.85;;;24.20;62.10;;;;;;4460715;32;20180;-76
2022/08/23 08:59:51;;;;;;;7.82;2.88;;;24.30;60.90;;;;;;4447106;32;20132;-76
2022/08/23 09:02:21;;;;;;;5.55;2.33;;;24.40;60.70;;;;;;4460848;32;20081;-75
2022/08/23 09:04:48;;;;;;;6.60;2.75;;;24.40;60.50;;;;;;4460369;32;20108;-76
2022/08/23 09:07:32;;;;;;;5.70;2.20;;;24.40;60.40;;;;;;4460251;32;20073;-75
2022/08/23 09:10:11;;;;;;;5.68;2.22;;;24.50;60.40;;;;;;4446455;32;20133;-76
2022/08/23 09:12:50;;;;;;;5.93;2.80;;;24.50;60.20;;;;;;4460947;32;20061;-76
2022/08/23 09:15:22;;;;;;;8.48;3.05;;;24.60;60.10;;;;;;4461207;32;20069;-76
2022/08/23 09:17:55;;;;;;;6.65;3.03;;;24.60;60.00;;;;;;4446873;32;20065;-75
2022/08/23 09:20:23;;;;;;;6.40;2.53;;;24.70;59.90;;;;;;4460791;32;20077;-75
2022/08/23 09:22:58;;;;;;;3.50;2.35;;;24.70;59.80;;;;;;4460870;32;20109;-76
2022/08/23 09:25:24;;;;;;;8.05;2.65;;;24.70;59.80;;;;;;4460552;32;20073;-76
2022/08/23 09:27:50;;;;;;;4.75;2.40;;;24.70;59.70;;;;;;4460692;32;20120;-75
2022/08/23 09:30:18;;;;;;;5.10;2.80;;;24.80;59.80;;;;;;4460907;32;20104;-74
2022/08/23 09:32:49;;;;;;;7.38;2.90;;;24.80;59.50;;;;;;4433345;32;20078;-72
2022/08/23 09:35:32;;;;;;;8.07;2.90;;;24.80;59.40;;;;;;4460637;32;20070;-73
2022/08/23 09:38:00;;;;;;;;;;;24.90;59.20;;;;;;4461257;32;20650;-74
2022/08/23 09:40:45;;;;;;;7.40;2.83;;;24.90;59.20;;;;;;4460191;32;19982;-74
2022/08/23 09:43:17;;;;;;;4.70;2.72;;;24.90;59.20;;;;;;4460896;32;20207;-74
2022/08/23 09:45:49;;;;;;;7.70;3.40;;;24.90;59.10;;;;;;4460449;32;20082;-70
2022/08/23 09:48:30;;;;;;;6.40;2.55;;;24.90;58.80;;;;;;4460504;32;20500;-74
2022/08/23 09:51:22;;;;;;;6.88;2.55;;;24.90;58.80;;;;;;4446298;32;20077;-66
2022/08/23 09:53:52;;;;;;;6.30;2.55;;;24.90;58.90;;;;;;4460286;32;20097;-73
2022/08/23 09:56:24;;;;;;;4.78;2.40;;;24.90;58.80;;;;;;4460171;32;20096;-73
2022/08/23 09:58:52;;;;;;;5.85;2.63;;;25.00;58.60;;;;;;4460510;32;20219;-73
2022/08/23 10:01:18;;;;;;;8.60;2.35;;;25.00;58.40;;;;;;4460112;32;20211;-73
2022/08/23 10:03:45;;;;;;;11.43;2.70;;;25.00;58.30;;;;;;4460141;32;20086;-72
2022/08/23 10:06:27;;;;;;;4.35;2.20;;;25.10;58.20;;;;;;4460582;32;20089;-72
2022/08/23 10:08:57;;;;;;;6.38;2.53;;;25.10;58.20;;;;;;4460539;32;20077;-72
2022/08/23 10:11:28;;;;;;;9.20;2.53;;;25.10;58.30;;;;;;4460416;32;20143;-72
2022/08/23 10:13:54;;;;;;;6.22;2.38;;;25.20;58.30;;;;;;4460440;32;20523;-73
2022/08/23 10:16:38;;;;;;;6.55;2.20;;;25.20;58.40;;;;;;4460532;32;20207;-73
2022/08/23 10:19:18;;;;;;;;;;;25.20;58.40;;;;;;4464016;32;20077;-73
2022/08/23 10:21:50;;;;;;;5.47;2.35;;;25.20;58.40;;;;;;4463701;32;20323;-72
2022/08/23 10:24:43;;;;;;;4.75;2.55;;;25.20;58.40;;;;;;4449168;32;20096;-72
2022/08/23 10:30:35;;;;;;;5.95;2.35;;;25.20;58.90;;;;;;4463613;32;20121;-72
2022/08/23 10:33:13;;;;;;;5.40;2.22;;;25.30;58.10;;;;;;4463306;32;20082;-72
2022/08/23 10:35:41;;;;;;;5.85;2.40;;;25.20;58.00;;;;;;4463323;32;20082;-73
2022/08/23 10:38:16;;;;;;;10.07;2.75;;;25.20;57.90;;;;;;4462871;32;20283;-72
2022/08/23 10:40:51;;;;;;;7.60;2.38;;;25.20;57.60;;;;;;4463102;32;20084;-73
2022/08/23 10:43:24;;;;;;;7.35;2.15;;;25.20;57.40;;;;;;4463227;32;20090;-73
2022/08/23 10:45:52;;;;;;;6.00;2.47;;;25.20;57.00;;;;;;4463366;32;20117;-72
2022/08/23 10:48:28;;;;;;;5.93;2.50;;;25.30;56.90;;;;;;4462995;32;20163;-72
2022/08/23 10:51:02;;;;;;;5.38;2.50;;;25.30;56.70;;;;;;4463172;32;20117;-73
2022/08/23 10:54:11;;;;;;;7.53;2.40;;;25.30;56.60;;;;;;4463197;32;20077;-73
2022/08/23 10:56:37;;;;;;;4.78;2.17;;;25.40;56.00;;;;;;4399675;32;20087;-72
2022/08/23 10:59:13;;;;;;;7.05;2.30;;;25.40;56.20;;;;;;4399315;32;20079;-72
2022/08/23 11:02:13;;;;;;;4.30;2.30;;;25.40;55.70;;;;;;4435511;32;20565;-72
2022/08/23 11:05:05;;;;;;;8.85;2.13;;;25.50;55.60;;;;;;4462887;32;20073;-73
2022/08/23 11:07:36;;;;;;;5.15;2.22;;;25.50;55.40;;;;;;4462942;32;20299;-73
2022/08/23 11:10:04;;;;;;;4.38;1.95;;;25.40;55.60;;;;;;4462550;32;20181;-72
2022/08/23 11:12:50;;;;;;;5.00;2.17;;;25.50;55.60;;;;;;4462179;32;20140;-73
2022/08/23 11:15:43;;;;;;;8.32;2.30;;;25.50;55.60;;;;;;4462437;32;20074;-73
2022/08/23 11:18:32;;;;;;;7.03;2.08;;;25.50;55.30;;;;;;4434869;32;20077;-72
2022/08/23 11:21:00;;;;;;;7.13;2.83;;;25.60;55.40;;;;;;4453167;32;20097;-72
2022/08/23 11:23:43;;;;;;;4.75;2.35;;;25.60;55.10;;;;;;4462683;32;20499;-73
2022/08/23 11:26:49;;;;;;;5.40;2.40;;;25.70;54.70;;;;;;4448274;32;20151;-73
2022/08/23 11:29:21;;;;;;;6.43;2.60;;;25.70;54.70;;;;;;4450602;32;20073;-74
2022/08/23 11:32:18;;;;;;;8.68;2.47;;;25.60;54.80;;;;;;4462088;32;20098;-73
2022/08/23 11:34:53;;;;;;;6.82;2.42;;;25.60;54.60;;;;;;4462228;32;20411;-71
2022/08/23 11:37:19;;;;;;;7.70;2.63;;;25.60;56.00;;;;;;4461727;32;20171;-71
2022/08/23 11:39:57;;;;;;;4.40;2.22;;;25.60;55.40;;;;;;4462069;32;20117;-70
2022/08/23 11:42:41;;;;;;;5.40;2.38;;;25.70;54.90;;;;;;4462420;32;20131;-71
2022/08/23 11:45:25;;;;;;;7.28;2.28;;;25.60;54.80;;;;;;4462148;32;20510;-71
2022/08/23 11:48:22;;;;;;;8.70;2.20;;;25.60;54.40;;;;;;4461798;32;20163;-71
2022/08/23 11:51:05;;;;;;;5.63;2.50;;;25.70;55.00;;;;;;4462542;32;20490;-71
2022/08/23 11:53:40;;;;;;;6.18;2.13;;;25.70;54.10;;;;;;4462033;32;20166;-71
2022/08/23 11:56:15;;;;;;;4.80;2.28;;;25.80;53.90;;;;;;4462329;32;20090;-71
2022/08/23 11:58:55;;;;;;;7.18;2.55;;;25.70;53.60;;;;;;4462052;32;20185;-71
2022/08/23 12:01:39;;;;;;;6.72;2.60;;;25.80;53.60;;;;;;4462175;32;20282;-71
2022/08/23 12:04:36;;;;;;;5.28;2.15;;;25.80;53.50;;;;;;4462174;32;20069;-71
2022/08/23 12:07:11;;;;;;;4.90;2.13;;;25.80;53.40;;;;;;4461807;32;20081;-70
2022/08/23 12:09:40;;;;;;;5.25;2.40;;;25.80;53.50;;;;;;4461904;32;20077;-71
2022/08/23 12:12:24;;;;;;;6.72;2.25;;;25.90;53.30;;;;;;4461693;32;20418;-71
2022/08/23 12:14:57;;;;;;;4.50;2.22;;;25.90;52.80;;;;;;4461769;32;20124;-71
2022/08/23 12:17:25;;;;;;;5.03;2.00;;;26.00;52.80;;;;;;4462064;32;20078;-71
2022/08/23 12:20:04;;;;;;;4.32;1.70;;;26.00;52.70;;;;;;4461409;32;20077;-71
2022/08/23 12:22:59;;;;;;;3.10;2.08;;;26.00;52.50;;;;;;4461505;32;20117;-71
2022/08/23 12:25:25;;;;;;;5.40;2.17;;;26.00;52.00;;;;;;4461884;32;20066;-71
2022/08/23 12:27:58;;;;;;;4.93;1.80;;;26.10;52.10;;;;;;4447497;32;20227;-71
2022/08/23 12:30:32;;;;;;;6.03;2.57;;;26.10;52.00;;;;;;4461755;32;20638;-71
2022/08/23 12:33:30;;;;;;;5.07;2.10;;;26.10;51.80;;;;;;4461463;32;20073;-71
2022/08/23 12:36:07;;;;;;;6.95;2.10;;;26.10;51.70;;;;;;4405655;32;20071;-71
2022/08/23 12:38:56;;;;;;;5.28;1.90;;;26.20;51.70;;;;;;4461082;32;20088;-71
2022/08/23 12:41:29;;;;;;;6.03;2.47;;;26.20;51.70;;;;;;4460980;32;20078;-71
2022/08/23 12:44:06;;;;;;;8.18;2.10;;;26.20;51.80;;;;;;4461583;32;20101;-71
2022/08/23 12:46:45;;;;;;;4.97;2.22;;;26.20;51.60;;;;;;4461672;32;20617;-71
2022/08/23 12:49:22;;;;;;;6.55;2.17;;;26.20;51.40;;;;;;4460860;32;20199;-71
2022/08/23 12:51:50;;;;;;;3.28;2.25;;;26.20;51.40;;;;;;4461036;32;20155;-72
2022/08/23 12:54:21;;;;;;;6.97;2.58;;;26.20;51.40;;;;;;4460933;32;20602;-72
2022/08/23 12:56:49;;;;;;;4.53;1.95;;;26.30;51.60;;;;;;4461467;32;20151;-71
2022/08/23 12:59:44;;;;;;;5.45;2.08;;;26.30;51.50;;;;;;4461075;32;20078;-71
2022/08/23 13:02:19;;;;;;;6.22;2.10;;;26.30;51.30;;;;;;4459358;32;20132;-71
2022/08/23 13:04:45;;;;;;;9.00;2.40;;;26.30;51.30;;;;;;4460850;32;20061;-72
2022/08/23 13:07:17;;;;;;;4.32;1.95;;;26.30;52.20;;;;;;4460640;32;20090;-72
2022/08/23 13:09:44;;;;;;;5.47;2.25;;;26.30;51.20;;;;;;4461295;32;20470;-72
2022/08/23 13:12:11;;;;;;;6.95;2.15;;;26.30;51.20;;;;;;4460845;32;20100;-72
2022/08/23 13:14:40;;;;;;;5.05;1.98;;;26.30;51.20;;;;;;4460936;32;20070;-72
2022/08/23 13:17:25;;;;;;;3.10;2.03;;;26.30;51.10;;;;;;4460399;32;20065;-71